MZW weather

Mecheria Airport
Mecheria, Naama Province, Algeria

Public forecast

Using degrees Celsius for public forecast. Weather courtesy of forecast.io.

METAR (pilot weather report)

Retrieved 2019/07/21 20:00 UTC (17 minutes ago):

DAAY 212000Z 35018KT 6000 FEW026TCU SCT030 SCT100 27/14 Q1028

TAF (pilot weather forecast)

Forecast is more than 12 hours old.

Retrieved 2019/05/21 00:09 UTC (2 months ago):

TAF TAF DAAY 202300Z 2100/2124 01014KT 9999 FEW030 BECMG 2102/2104 VRB02KT